sensor_id;sensor_type;location;lat;lon;timestamp;temperature;humidity
70708;SHT30;58277;47.316;18.908;2023-04-24T00:00:19;13.22;62.55
70708;SHT30;58277;47.316;18.908;2023-04-24T00:02:42;13.44;62.73
70708;SHT30;58277;47.316;18.908;2023-04-24T00:05:09;13.64;62.09
70708;SHT30;58277;47.316;18.908;2023-04-24T00:07:32;13.64;61.96
70708;SHT30;58277;47.316;18.908;2023-04-24T00:09:55;13.65;61.90
70708;SHT30;58277;47.316;18.908;2023-04-24T00:12:18;13.64;63.70
70708;SHT30;58277;47.316;18.908;2023-04-24T00:14:41;13.70;64.26
70708;SHT30;58277;47.316;18.908;2023-04-24T00:17:03;13.57;64.72
70708;SHT30;58277;47.316;18.908;2023-04-24T00:19:26;13.51;63.42
70708;SHT30;58277;47.316;18.908;2023-04-24T00:21:49;13.47;64.16
70708;SHT30;58277;47.316;18.908;2023-04-24T00:24:12;13.44;64.17
70708;SHT30;58277;47.316;18.908;2023-04-24T00:26:35;13.19;65.62
70708;SHT30;58277;47.316;18.908;2023-04-24T00:28:57;13.09;67.34
70708;SHT30;58277;47.316;18.908;2023-04-24T00:31:21;13.13;67.96
70708;SHT30;58277;47.316;18.908;2023-04-24T00:33:44;13.02;69.58
70708;SHT30;58277;47.316;18.908;2023-04-24T00:36:07;13.09;69.35
70708;SHT30;58277;47.316;18.908;2023-04-24T00:38:30;13.15;69.64
70708;SHT30;58277;47.316;18.908;2023-04-24T00:40:52;13.15;68.78
70708;SHT30;58277;47.316;18.908;2023-04-24T00:43:16;13.15;69.77
70708;SHT30;58277;47.316;18.908;2023-04-24T00:45:39;13.12;70.04
70708;SHT30;58277;47.316;18.908;2023-04-24T00:48:02;13.10;69.97
70708;SHT30;58277;47.316;18.908;2023-04-24T00:50:25;13.22;69.11
70708;SHT30;58277;47.316;18.908;2023-04-24T00:52:48;13.28;68.76
70708;SHT30;58277;47.316;18.908;2023-04-24T00:55:12;13.46;67.91
70708;SHT30;58277;47.316;18.908;2023-04-24T00:57:34;13.51;68.37
70708;SHT30;58277;47.316;18.908;2023-04-24T00:59:58;13.71;67.90
70708;SHT30;58277;47.316;18.908;2023-04-24T01:02:22;13.81;68.00
70708;SHT30;58277;47.316;18.908;2023-04-24T01:04:45;13.79;68.39
70708;SHT30;58277;47.316;18.908;2023-04-24T01:07:08;13.91;68.84
70708;SHT30;58277;47.316;18.908;2023-04-24T01:09:34;14.00;68.87
70708;SHT30;58277;47.316;18.908;2023-04-24T01:11:57;13.98;70.03
70708;SHT30;58277;47.316;18.908;2023-04-24T01:14:20;14.01;70.85
70708;SHT30;58277;47.316;18.908;2023-04-24T01:16:44;14.00;72.19
70708;SHT30;58277;47.316;18.908;2023-04-24T01:19:10;13.88;73.36
70708;SHT30;58277;47.316;18.908;2023-04-24T01:21:37;13.73;74.15
70708;SHT30;58277;47.316;18.908;2023-04-24T01:24:00;13.61;75.21
70708;SHT30;58277;47.316;18.908;2023-04-24T01:26:23;13.44;76.07
70708;SHT30;58277;47.316;18.908;2023-04-24T01:28:48;13.24;76.96
70708;SHT30;58277;47.316;18.908;2023-04-24T01:31:10;13.15;78.39
70708;SHT30;58277;47.316;18.908;2023-04-24T01:33:33;13.06;78.83
70708;SHT30;58277;47.316;18.908;2023-04-24T01:35:56;12.95;78.90
70708;SHT30;58277;47.316;18.908;2023-04-24T01:38:19;13.05;79.38
70708;SHT30;58277;47.316;18.908;2023-04-24T01:40:42;13.05;79.76
70708;SHT30;58277;47.316;18.908;2023-04-24T01:43:05;12.99;79.85
70708;SHT30;58277;47.316;18.908;2023-04-24T01:45:27;12.79;80.41
70708;SHT30;58277;47.316;18.908;2023-04-24T01:47:52;12.74;80.15
70708;SHT30;58277;47.316;18.908;2023-04-24T01:50:14;12.74;79.42
70708;SHT30;58277;47.316;18.908;2023-04-24T01:52:37;12.79;79.78
70708;SHT30;58277;47.316;18.908;2023-04-24T01:55:00;12.72;78.52
70708;SHT30;58277;47.316;18.908;2023-04-24T01:57:23;12.72;78.88
70708;SHT30;58277;47.316;18.908;2023-04-24T01:59:47;12.82;78.29
70708;SHT30;58277;47.316;18.908;2023-04-24T02:02:09;12.81;79.66
70708;SHT30;58277;47.316;18.908;2023-04-24T02:04:32;12.74;78.98
70708;SHT30;58277;47.316;18.908;2023-04-24T02:06:55;12.67;80.47
70708;SHT30;58277;47.316;18.908;2023-04-24T02:09:19;12.67;80.59
70708;SHT30;58277;47.316;18.908;2023-04-24T02:11:42;12.51;80.79
70708;SHT30;58277;47.316;18.908;2023-04-24T02:14:04;12.61;80.56
70708;SHT30;58277;47.316;18.908;2023-04-24T02:16:28;12.57;79.21
70708;SHT30;58277;47.316;18.908;2023-04-24T02:18:55;12.52;78.64
70708;SHT30;58277;47.316;18.908;2023-04-24T02:21:19;12.61;79.50
70708;SHT30;58277;47.316;18.908;2023-04-24T02:23:41;12.60;79.61
70708;SHT30;58277;47.316;18.908;2023-04-24T02:26:04;12.77;79.87
70708;SHT30;58277;47.316;18.908;2023-04-24T02:28:27;12.75;80.20
70708;SHT30;58277;47.316;18.908;2023-04-24T02:30:50;12.88;79.66
70708;SHT30;58277;47.316;18.908;2023-04-24T02:33:15;12.84;79.37
70708;SHT30;58277;47.316;18.908;2023-04-24T02:35:38;12.75;78.73
70708;SHT30;58277;47.316;18.908;2023-04-24T02:38:01;12.79;78.93
70708;SHT30;58277;47.316;18.908;2023-04-24T02:40:23;12.71;79.28
70708;SHT30;58277;47.316;18.908;2023-04-24T02:42:46;12.78;79.54
70708;SHT30;58277;47.316;18.908;2023-04-24T02:45:09;12.81;78.99
70708;SHT30;58277;47.316;18.908;2023-04-24T02:47:32;12.75;78.95
70708;SHT30;58277;47.316;18.908;2023-04-24T02:49:55;12.88;79.07
70708;SHT30;58277;47.316;18.908;2023-04-24T02:52:17;12.78;78.59
70708;SHT30;58277;47.316;18.908;2023-04-24T02:54:40;12.71;79.15
70708;SHT30;58277;47.316;18.908;2023-04-24T02:57:03;12.79;79.47
70708;SHT30;58277;47.316;18.908;2023-04-24T02:59:26;12.87;79.36
70708;SHT30;58277;47.316;18.908;2023-04-24T03:01:50;12.69;79.56
70708;SHT30;58277;47.316;18.908;2023-04-24T03:04:12;12.67;80.13
70708;SHT30;58277;47.316;18.908;2023-04-24T03:06:35;12.61;79.83
70708;SHT30;58277;47.316;18.908;2023-04-24T03:08:58;12.62;80.43
70708;SHT30;58277;47.316;18.908;2023-04-24T03:11:21;12.55;79.68
70708;SHT30;58277;47.316;18.908;2023-04-24T03:13:44;12.51;79.27
70708;SHT30;58277;47.316;18.908;2023-04-24T03:16:06;12.47;79.91
70708;SHT30;58277;47.316;18.908;2023-04-24T03:18:29;12.44;79.00
70708;SHT30;58277;47.316;18.908;2023-04-24T03:20:53;12.38;78.61
70708;SHT30;58277;47.316;18.908;2023-04-24T03:23:15;12.34;78.68
70708;SHT30;58277;47.316;18.908;2023-04-24T03:25:38;12.33;78.42
70708;SHT30;58277;47.316;18.908;2023-04-24T03:28:01;12.41;78.19
70708;SHT30;58277;47.316;18.908;2023-04-24T03:30:47;12.48;77.40
70708;SHT30;58277;47.316;18.908;2023-04-24T03:33:10;12.58;76.97
70708;SHT30;58277;47.316;18.908;2023-04-24T03:35:40;12.52;77.44
70708;SHT30;58277;47.316;18.908;2023-04-24T03:38:05;12.50;77.43
70708;SHT30;58277;47.316;18.908;2023-04-24T03:40:37;12.47;78.50
70708;SHT30;58277;47.316;18.908;2023-04-24T03:43:09;12.52;78.18
70708;SHT30;58277;47.316;18.908;2023-04-24T03:45:32;12.55;77.61
70708;SHT30;58277;47.316;18.908;2023-04-24T03:47:54;12.54;76.95
70708;SHT30;58277;47.316;18.908;2023-04-24T03:50:17;12.48;77.62
70708;SHT30;58277;47.316;18.908;2023-04-24T03:53:01;12.51;77.44
70708;SHT30;58277;47.316;18.908;2023-04-24T03:55:30;12.51;77.39
70708;SHT30;58277;47.316;18.908;2023-04-24T03:57:53;12.54;77.47
70708;SHT30;58277;47.316;18.908;2023-04-24T04:00:17;12.57;76.96
70708;SHT30;58277;47.316;18.908;2023-04-24T04:02:47;12.61;77.20
70708;SHT30;58277;47.316;18.908;2023-04-24T04:05:10;12.60;78.12
70708;SHT30;58277;47.316;18.908;2023-04-24T04:07:33;12.58;78.17
70708;SHT30;58277;47.316;18.908;2023-04-24T04:09:56;12.51;78.40
70708;SHT30;58277;47.316;18.908;2023-04-24T04:12:18;12.40;80.83
70708;SHT30;58277;47.316;18.908;2023-04-24T04:14:41;12.44;81.08
70708;SHT30;58277;47.316;18.908;2023-04-24T04:17:04;12.44;80.95
70708;SHT30;58277;47.316;18.908;2023-04-24T04:19:26;12.38;80.49
70708;SHT30;58277;47.316;18.908;2023-04-24T04:21:50;12.36;80.08
70708;SHT30;58277;47.316;18.908;2023-04-24T04:24:31;12.27;80.70
70708;SHT30;58277;47.316;18.908;2023-04-24T04:26:54;12.29;81.35
70708;SHT30;58277;47.316;18.908;2023-04-24T04:29:24;12.26;81.86
70708;SHT30;58277;47.316;18.908;2023-04-24T04:31:48;12.20;81.02
70708;SHT30;58277;47.316;18.908;2023-04-24T04:34:11;12.23;80.93
70708;SHT30;58277;47.316;18.908;2023-04-24T04:36:35;12.19;80.95
70708;SHT30;58277;47.316;18.908;2023-04-24T04:39:19;12.20;80.63
70708;SHT30;58277;47.316;18.908;2023-04-24T04:41:55;12.27;80.77
70708;SHT30;58277;47.316;18.908;2023-04-24T04:44:22;12.26;80.61
70708;SHT30;58277;47.316;18.908;2023-04-24T04:46:46;12.30;80.58
70708;SHT30;58277;47.316;18.908;2023-04-24T04:49:25;12.31;80.07
70708;SHT30;58277;47.316;18.908;2023-04-24T04:51:51;12.37;80.12
70708;SHT30;58277;47.316;18.908;2023-04-24T04:54:15;12.45;79.72
70708;SHT30;58277;47.316;18.908;2023-04-24T04:56:38;12.61;79.53
70708;SHT30;58277;47.316;18.908;2023-04-24T04:59:01;12.57;80.02
70708;SHT30;58277;47.316;18.908;2023-04-24T05:01:24;12.65;79.23
70708;SHT30;58277;47.316;18.908;2023-04-24T05:03:47;12.65;79.07
70708;SHT30;58277;47.316;18.908;2023-04-24T05:06:12;12.67;79.43
70708;SHT30;58277;47.316;18.908;2023-04-24T05:08:35;12.68;80.20
70708;SHT30;58277;47.316;18.908;2023-04-24T05:11:00;12.74;79.70
70708;SHT30;58277;47.316;18.908;2023-04-24T05:13:24;12.84;79.55
70708;SHT30;58277;47.316;18.908;2023-04-24T05:16:04;12.82;79.10
70708;SHT30;58277;47.316;18.908;2023-04-24T05:18:27;12.87;79.01
70708;SHT30;58277;47.316;18.908;2023-04-24T05:20:50;12.93;78.90
70708;SHT30;58277;47.316;18.908;2023-04-24T05:23:14;12.96;78.74
70708;SHT30;58277;47.316;18.908;2023-04-24T05:25:39;13.07;78.17
70708;SHT30;58277;47.316;18.908;2023-04-24T05:28:06;13.07;78.43
70708;SHT30;58277;47.316;18.908;2023-04-24T05:30:29;13.09;78.36
70708;SHT30;58277;47.316;18.908;2023-04-24T05:32:53;13.09;78.64
70708;SHT30;58277;47.316;18.908;2023-04-24T05:35:15;13.10;78.41
70708;SHT30;58277;47.316;18.908;2023-04-24T05:37:38;13.26;78.31
70708;SHT30;58277;47.316;18.908;2023-04-24T05:40:02;13.47;77.94
70708;SHT30;58277;47.316;18.908;2023-04-24T05:42:28;13.67;77.70
70708;SHT30;58277;47.316;18.908;2023-04-24T05:44:52;13.65;76.85
70708;SHT30;58277;47.316;18.908;2023-04-24T05:47:19;13.75;77.16
70708;SHT30;58277;47.316;18.908;2023-04-24T05:49:45;13.74;75.96
70708;SHT30;58277;47.316;18.908;2023-04-24T05:52:08;13.97;75.77
70708;SHT30;58277;47.316;18.908;2023-04-24T05:54:33;13.64;75.98
70708;SHT30;58277;47.316;18.908;2023-04-24T05:56:56;13.67;76.21
70708;SHT30;58277;47.316;18.908;2023-04-24T05:59:29;13.78;76.60
70708;SHT30;58277;47.316;18.908;2023-04-24T06:01:53;13.84;75.99
70708;SHT30;58277;47.316;18.908;2023-04-24T06:04:17;13.95;75.66
70708;SHT30;58277;47.316;18.908;2023-04-24T06:06:42;13.97;75.46
70708;SHT30;58277;47.316;18.908;2023-04-24T06:09:09;13.92;75.66
70708;SHT30;58277;47.316;18.908;2023-04-24T06:11:34;13.77;75.77
70708;SHT30;58277;47.316;18.908;2023-04-24T06:14:02;13.95;75.86
70708;SHT30;58277;47.316;18.908;2023-04-24T06:16:36;13.78;76.24
70708;SHT30;58277;47.316;18.908;2023-04-24T06:19:07;13.78;76.46
70708;SHT30;58277;47.316;18.908;2023-04-24T06:21:31;13.74;76.59
70708;SHT30;58277;47.316;18.908;2023-04-24T06:23:54;13.85;76.88
70708;SHT30;58277;47.316;18.908;2023-04-24T06:26:18;14.09;76.19
70708;SHT30;58277;47.316;18.908;2023-04-24T06:28:41;14.00;76.28
70708;SHT30;58277;47.316;18.908;2023-04-24T06:31:04;14.02;76.04
70708;SHT30;58277;47.316;18.908;2023-04-24T06:33:27;14.28;75.91
70708;SHT30;58277;47.316;18.908;2023-04-24T06:35:50;14.37;75.42
70708;SHT30;58277;47.316;18.908;2023-04-24T06:38:13;14.46;75.77
70708;SHT30;58277;47.316;18.908;2023-04-24T06:40:36;14.67;75.09
70708;SHT30;58277;47.316;18.908;2023-04-24T06:42:58;14.77;75.04
70708;SHT30;58277;47.316;18.908;2023-04-24T06:45:22;14.98;74.64
70708;SHT30;58277;47.316;18.908;2023-04-24T06:47:45;14.95;73.71
70708;SHT30;58277;47.316;18.908;2023-04-24T06:50:08;14.78;74.46
70708;SHT30;58277;47.316;18.908;2023-04-24T06:52:31;14.78;75.10
70708;SHT30;58277;47.316;18.908;2023-04-24T06:55:04;14.53;75.54
70708;SHT30;58277;47.316;18.908;2023-04-24T06:57:27;14.59;75.84
70708;SHT30;58277;47.316;18.908;2023-04-24T06:59:50;14.55;76.22
70708;SHT30;58277;47.316;18.908;2023-04-24T07:02:13;14.53;76.51
70708;SHT30;58277;47.316;18.908;2023-04-24T07:04:36;14.25;78.16
70708;SHT30;58277;47.316;18.908;2023-04-24T07:06:59;14.22;78.58
70708;SHT30;58277;47.316;18.908;2023-04-24T07:09:24;14.56;78.48
70708;SHT30;58277;47.316;18.908;2023-04-24T07:11:48;14.57;77.37
70708;SHT30;58277;47.316;18.908;2023-04-24T07:14:11;14.67;77.98
70708;SHT30;58277;47.316;18.908;2023-04-24T07:16:34;14.85;77.97
70708;SHT30;58277;47.316;18.908;2023-04-24T07:18:58;14.97;77.10
70708;SHT30;58277;47.316;18.908;2023-04-24T07:21:20;15.26;76.55
70708;SHT30;58277;47.316;18.908;2023-04-24T07:23:43;15.36;76.29
70708;SHT30;58277;47.316;18.908;2023-04-24T07:26:06;15.32;76.88
70708;SHT30;58277;47.316;18.908;2023-04-24T07:28:31;15.63;76.83
70708;SHT30;58277;47.316;18.908;2023-04-24T07:30:54;15.84;75.92
70708;SHT30;58277;47.316;18.908;2023-04-24T07:33:17;16.01;75.29
70708;SHT30;58277;47.316;18.908;2023-04-24T07:35:41;16.39;74.86
70708;SHT30;58277;47.316;18.908;2023-04-24T07:38:04;16.99;72.74
70708;SHT30;58277;47.316;18.908;2023-04-24T07:40:27;17.24;72.71
70708;SHT30;58277;47.316;18.908;2023-04-24T07:42:50;17.61;68.28
70708;SHT30;58277;47.316;18.908;2023-04-24T07:45:13;17.58;68.23
70708;SHT30;58277;47.316;18.908;2023-04-24T07:47:36;17.56;67.66
70708;SHT30;58277;47.316;18.908;2023-04-24T07:50:00;17.36;67.81
70708;SHT30;58277;47.316;18.908;2023-04-24T07:52:26;17.52;69.04
70708;SHT30;58277;47.316;18.908;2023-04-24T07:54:48;17.78;68.62
70708;SHT30;58277;47.316;18.908;2023-04-24T07:57:12;18.13;67.50
70708;SHT30;58277;47.316;18.908;2023-04-24T07:59:35;17.96;66.87
70708;SHT30;58277;47.316;18.908;2023-04-24T08:01:57;17.69;67.66
70708;SHT30;58277;47.316;18.908;2023-04-24T08:04:22;17.42;68.62
70708;SHT30;58277;47.316;18.908;2023-04-24T08:06:48;17.31;68.97
70708;SHT30;58277;47.316;18.908;2023-04-24T08:09:10;16.88;69.35
70708;SHT30;58277;47.316;18.908;2023-04-24T08:11:33;17.63;68.73
70708;SHT30;58277;47.316;18.908;2023-04-24T08:13:57;17.53;67.77
70708;SHT30;58277;47.316;18.908;2023-04-24T08:16:19;17.90;67.49
70708;SHT30;58277;47.316;18.908;2023-04-24T08:18:43;18.18;65.87
70708;SHT30;58277;47.316;18.908;2023-04-24T08:21:06;17.66;65.95
70708;SHT30;58277;47.316;18.908;2023-04-24T08:23:29;17.49;68.27
70708;SHT30;58277;47.316;18.908;2023-04-24T08:25:52;17.59;67.32
70708;SHT30;58277;47.316;18.908;2023-04-24T08:28:15;18.01;66.76
70708;SHT30;58277;47.316;18.908;2023-04-24T08:30:42;18.75;64.61
70708;SHT30;58277;47.316;18.908;2023-04-24T08:33:05;19.06;62.57
70708;SHT30;58277;47.316;18.908;2023-04-24T08:35:28;19.09;62.12
70708;SHT30;58277;47.316;18.908;2023-04-24T08:37:52;19.33;62.74
70708;SHT30;58277;47.316;18.908;2023-04-24T08:40:28;19.27;60.97
70708;SHT30;58277;47.316;18.908;2023-04-24T08:42:54;19.00;62.59
70708;SHT30;58277;47.316;18.908;2023-04-24T08:45:18;18.55;62.40
70708;SHT30;58277;47.316;18.908;2023-04-24T08:47:42;18.93;63.48
70708;SHT30;58277;47.316;18.908;2023-04-24T08:50:06;18.43;63.49
70708;SHT30;58277;47.316;18.908;2023-04-24T08:52:29;18.93;62.14
70708;SHT30;58277;47.316;18.908;2023-04-24T08:54:53;19.22;60.89
70708;SHT30;58277;47.316;18.908;2023-04-24T08:57:17;19.12;62.83
70708;SHT30;58277;47.316;18.908;2023-04-24T08:59:40;19.26;61.04
70708;SHT30;58277;47.316;18.908;2023-04-24T09:02:06;19.78;60.82
70708;SHT30;58277;47.316;18.908;2023-04-24T09:04:32;19.85;60.28
70708;SHT30;58277;47.316;18.908;2023-04-24T09:06:57;19.81;60.49
70708;SHT30;58277;47.316;18.908;2023-04-24T09:09:23;19.65;59.78
70708;SHT30;58277;47.316;18.908;2023-04-24T09:11:46;19.23;59.88
70708;SHT30;58277;47.316;18.908;2023-04-24T09:14:11;19.33;59.95
70708;SHT30;58277;47.316;18.908;2023-04-24T09:16:35;19.60;59.26
70708;SHT30;58277;47.316;18.908;2023-04-24T09:18:58;19.70;58.83
70708;SHT30;58277;47.316;18.908;2023-04-24T09:21:23;19.50;58.90
70708;SHT30;58277;47.316;18.908;2023-04-24T09:23:46;19.65;60.45
70708;SHT30;58277;47.316;18.908;2023-04-24T09:26:09;19.92;58.64
70708;SHT30;58277;47.316;18.908;2023-04-24T09:28:37;19.96;57.64
70708;SHT30;58277;47.316;18.908;2023-04-24T09:33:26;20.30;57.18
70708;SHT30;58277;47.316;18.908;2023-04-24T09:35:50;20.27;57.34
70708;SHT30;58277;47.316;18.908;2023-04-24T09:38:13;20.26;57.19
70708;SHT30;58277;47.316;18.908;2023-04-24T09:40:36;19.41;58.88
70708;SHT30;58277;47.316;18.908;2023-04-24T09:43:02;19.53;59.88
70708;SHT30;58277;47.316;18.908;2023-04-24T09:45:35;19.65;59.37
70708;SHT30;58277;47.316;18.908;2023-04-24T09:47:58;19.75;59.19
70708;SHT30;58277;47.316;18.908;2023-04-24T09:50:22;19.85;59.32
70708;SHT30;58277;47.316;18.908;2023-04-24T09:52:55;19.82;58.73
70708;SHT30;58277;47.316;18.908;2023-04-24T09:55:20;19.77;59.11
70708;SHT30;58277;47.316;18.908;2023-04-24T09:57:50;19.57;58.09
70708;SHT30;58277;47.316;18.908;2023-04-24T10:00:28;19.86;56.73
70708;SHT30;58277;47.316;18.908;2023-04-24T10:02:57;20.15;56.19
70708;SHT30;58277;47.316;18.908;2023-04-24T10:05:24;20.39;54.74
70708;SHT30;58277;47.316;18.908;2023-04-24T10:07:47;20.64;53.96
70708;SHT30;58277;47.316;18.908;2023-04-24T10:10:11;20.57;53.75
70708;SHT30;58277;47.316;18.908;2023-04-24T10:12:34;20.41;53.90
70708;SHT30;58277;47.316;18.908;2023-04-24T10:14:58;20.51;54.23
70708;SHT30;58277;47.316;18.908;2023-04-24T10:17:21;20.92;53.03
70708;SHT30;58277;47.316;18.908;2023-04-24T10:19:46;21.12;53.08
70708;SHT30;58277;47.316;18.908;2023-04-24T10:22:09;21.32;52.84
70708;SHT30;58277;47.316;18.908;2023-04-24T10:24:33;21.03;52.61
70708;SHT30;58277;47.316;18.908;2023-04-24T10:26:58;21.35;52.96
70708;SHT30;58277;47.316;18.908;2023-04-24T10:29:21;21.53;52.37
70708;SHT30;58277;47.316;18.908;2023-04-24T10:31:44;21.84;52.00
70708;SHT30;58277;47.316;18.908;2023-04-24T10:34:11;22.12;51.79
70708;SHT30;58277;47.316;18.908;2023-04-24T10:36:35;22.29;48.79
70708;SHT30;58277;47.316;18.908;2023-04-24T10:39:01;22.66;48.04
70708;SHT30;58277;47.316;18.908;2023-04-24T10:41:25;22.91;47.55
70708;SHT30;58277;47.316;18.908;2023-04-24T10:44:03;23.22;45.60
70708;SHT30;58277;47.316;18.908;2023-04-24T10:46:27;23.73;45.15
70708;SHT30;58277;47.316;18.908;2023-04-24T10:48:54;24.06;44.44
70708;SHT30;58277;47.316;18.908;2023-04-24T10:51:17;24.10;43.73
70708;SHT30;58277;47.316;18.908;2023-04-24T10:53:41;24.04;43.41
70708;SHT30;58277;47.316;18.908;2023-04-24T10:56:06;23.75;43.16
70708;SHT30;58277;47.316;18.908;2023-04-24T10:58:43;24.20;43.58
70708;SHT30;58277;47.316;18.908;2023-04-24T11:01:28;24.03;43.30
70708;SHT30;58277;47.316;18.908;2023-04-24T11:04:00;23.80;43.41
70708;SHT30;58277;47.316;18.908;2023-04-24T11:06:31;23.97;43.98
70708;SHT30;58277;47.316;18.908;2023-04-24T11:09:08;23.68;44.47
70708;SHT30;58277;47.316;18.908;2023-04-24T11:11:31;23.85;43.96
70708;SHT30;58277;47.316;18.908;2023-04-24T11:18:51;23.47;46.81
70708;SHT30;58277;47.316;18.908;2023-04-24T11:21:17;23.25;47.37
70708;SHT30;58277;47.316;18.908;2023-04-24T11:23:40;23.31;48.14
70708;SHT30;58277;47.316;18.908;2023-04-24T11:26:13;23.21;48.85
70708;SHT30;58277;47.316;18.908;2023-04-24T11:28:49;23.27;47.88
70708;SHT30;58277;47.316;18.908;2023-04-24T11:31:35;22.91;48.59
70708;SHT30;58277;47.316;18.908;2023-04-24T11:34:09;23.04;48.44
70708;SHT30;58277;47.316;18.908;2023-04-24T11:36:34;23.35;47.65
70708;SHT30;58277;47.316;18.908;2023-04-24T11:38:57;23.37;45.53
70708;SHT30;58277;47.316;18.908;2023-04-24T11:41:20;23.54;46.81
70708;SHT30;58277;47.316;18.908;2023-04-24T11:43:45;23.47;42.57
70708;SHT30;58277;47.316;18.908;2023-04-24T11:46:09;23.03;42.66
70708;SHT30;58277;47.316;18.908;2023-04-24T11:48:34;22.94;44.18
70708;SHT30;58277;47.316;18.908;2023-04-24T11:51:01;23.15;44.44
70708;SHT30;58277;47.316;18.908;2023-04-24T11:53:25;23.08;43.62
70708;SHT30;58277;47.316;18.908;2023-04-24T11:55:48;23.11;43.31
70708;SHT30;58277;47.316;18.908;2023-04-24T11:58:11;23.21;44.05
70708;SHT30;58277;47.316;18.908;2023-04-24T12:00:35;23.27;43.62
70708;SHT30;58277;47.316;18.908;2023-04-24T12:03:08;23.21;42.87
70708;SHT30;58277;47.316;18.908;2023-04-24T12:05:31;23.27;43.34
70708;SHT30;58277;47.316;18.908;2023-04-24T12:07:54;23.37;43.40
70708;SHT30;58277;47.316;18.908;2023-04-24T12:10:21;23.34;42.34
70708;SHT30;58277;47.316;18.908;2023-04-24T12:12:45;23.69;41.96
70708;SHT30;58277;47.316;18.908;2023-04-24T12:15:09;23.97;42.56
70708;SHT30;58277;47.316;18.908;2023-04-24T12:17:33;24.27;42.12
70708;SHT30;58277;47.316;18.908;2023-04-24T12:20:04;24.13;41.82
70708;SHT30;58277;47.316;18.908;2023-04-24T12:22:42;24.55;41.95
70708;SHT30;58277;47.316;18.908;2023-04-24T12:25:10;23.97;41.68
70708;SHT30;58277;47.316;18.908;2023-04-24T12:27:33;24.51;41.25
70708;SHT30;58277;47.316;18.908;2023-04-24T12:29:57;24.35;39.68
70708;SHT30;58277;47.316;18.908;2023-04-24T12:32:20;23.99;39.58
70708;SHT30;58277;47.316;18.908;2023-04-24T12:34:43;24.12;39.57
70708;SHT30;58277;47.316;18.908;2023-04-24T12:37:10;24.03;39.30
70708;SHT30;58277;47.316;18.908;2023-04-24T12:39:33;24.02;39.90
70708;SHT30;58277;47.316;18.908;2023-04-24T12:41:56;23.68;40.33
70708;SHT30;58277;47.316;18.908;2023-04-24T12:44:19;23.72;40.91
70708;SHT30;58277;47.316;18.908;2023-04-24T12:46:42;23.42;42.16
70708;SHT30;58277;47.316;18.908;2023-04-24T12:49:05;23.18;45.95
70708;SHT30;58277;47.316;18.908;2023-04-24T12:51:27;22.79;48.57
70708;SHT30;58277;47.316;18.908;2023-04-24T12:53:50;22.86;49.86
70708;SHT30;58277;47.316;18.908;2023-04-24T12:56:15;22.73;50.94
70708;SHT30;58277;47.316;18.908;2023-04-24T12:58:39;22.70;52.11
70708;SHT30;58277;47.316;18.908;2023-04-24T13:01:02;22.79;52.86
70708;SHT30;58277;47.316;18.908;2023-04-24T13:03:25;22.48;52.17
70708;SHT30;58277;47.316;18.908;2023-04-24T13:05:48;22.43;52.99
70708;SHT30;58277;47.316;18.908;2023-04-24T13:08:10;22.21;53.77
70708;SHT30;58277;47.316;18.908;2023-04-24T13:10:36;21.84;54.91
70708;SHT30;58277;47.316;18.908;2023-04-24T13:13:00;21.56;55.91
70708;SHT30;58277;47.316;18.908;2023-04-24T13:15:23;21.23;56.91
70708;SHT30;58277;47.316;18.908;2023-04-24T13:17:45;21.33;56.92
70708;SHT30;58277;47.316;18.908;2023-04-24T13:20:09;21.21;57.13
70708;SHT30;58277;47.316;18.908;2023-04-24T13:22:32;20.96;57.63
70708;SHT30;58277;47.316;18.908;2023-04-24T13:24:55;21.15;57.79
70708;SHT30;58277;47.316;18.908;2023-04-24T13:27:18;21.09;58.19
70708;SHT30;58277;47.316;18.908;2023-04-24T13:29:41;21.33;57.67
70708;SHT30;58277;47.316;18.908;2023-04-24T13:32:04;20.94;57.88
70708;SHT30;58277;47.316;18.908;2023-04-24T13:34:27;20.85;58.30
70708;SHT30;58277;47.316;18.908;2023-04-24T13:36:54;20.77;58.21
70708;SHT30;58277;47.316;18.908;2023-04-24T13:39:17;20.57;58.40
70708;SHT30;58277;47.316;18.908;2023-04-24T13:41:40;20.36;59.68
70708;SHT30;58277;47.316;18.908;2023-04-24T13:44:04;20.30;59.39
70708;SHT30;58277;47.316;18.908;2023-04-24T13:46:26;20.26;59.57
70708;SHT30;58277;47.316;18.908;2023-04-24T13:48:49;20.15;61.02
70708;SHT30;58277;47.316;18.908;2023-04-24T13:51:12;20.05;61.82
70708;SHT30;58277;47.316;18.908;2023-04-24T13:53:35;19.78;63.28
70708;SHT30;58277;47.316;18.908;2023-04-24T13:56:00;19.17;65.16
70708;SHT30;58277;47.316;18.908;2023-04-24T13:58:23;18.69;67.02
70708;SHT30;58277;47.316;18.908;2023-04-24T14:00:46;18.45;68.43
70708;SHT30;58277;47.316;18.908;2023-04-24T14:03:08;18.16;70.49
70708;SHT30;58277;47.316;18.908;2023-04-24T14:05:31;17.80;72.90
70708;SHT30;58277;47.316;18.908;2023-04-24T14:07:54;17.53;74.86
70708;SHT30;58277;47.316;18.908;2023-04-24T14:10:17;17.36;74.05
70708;SHT30;58277;47.316;18.908;2023-04-24T14:12:40;17.17;74.67
70708;SHT30;58277;47.316;18.908;2023-04-24T14:15:03;17.13;75.92
70708;SHT30;58277;47.316;18.908;2023-04-24T14:17:27;17.02;77.22
70708;SHT30;58277;47.316;18.908;2023-04-24T14:19:50;16.86;76.69
70708;SHT30;58277;47.316;18.908;2023-04-24T14:22:14;16.87;78.03
70708;SHT30;58277;47.316;18.908;2023-04-24T14:24:37;17.03;77.45
70708;SHT30;58277;47.316;18.908;2023-04-24T14:27:00;17.08;76.45
70708;SHT30;58277;47.316;18.908;2023-04-24T14:29:22;17.36;75.67
70708;SHT30;58277;47.316;18.908;2023-04-24T14:31:52;17.49;72.67
70708;SHT30;58277;47.316;18.908;2023-04-24T14:34:17;17.73;69.68
70708;SHT30;58277;47.316;18.908;2023-04-24T14:36:42;18.07;68.13
70708;SHT30;58277;47.316;18.908;2023-04-24T14:39:04;18.34;67.61
70708;SHT30;58277;47.316;18.908;2023-04-24T14:41:29;18.51;65.85
70708;SHT30;58277;47.316;18.908;2023-04-24T14:43:52;18.55;66.68
70708;SHT30;58277;47.316;18.908;2023-04-24T14:46:15;18.57;67.48
70708;SHT30;58277;47.316;18.908;2023-04-24T14:48:38;18.81;67.01
70708;SHT30;58277;47.316;18.908;2023-04-24T14:51:01;18.76;67.00
70708;SHT30;58277;47.316;18.908;2023-04-24T14:53:23;18.66;66.69
70708;SHT30;58277;47.316;18.908;2023-04-24T14:55:46;18.34;67.59
70708;SHT30;58277;47.316;18.908;2023-04-24T14:58:10;18.31;67.62
70708;SHT30;58277;47.316;18.908;2023-04-24T15:00:32;18.18;67.92
70708;SHT30;58277;47.316;18.908;2023-04-24T15:02:55;18.24;68.05
70708;SHT30;58277;47.316;18.908;2023-04-24T15:05:18;18.03;67.72